Terminal Aerodrome Forecast
Issued by NWS Wilmington, OH

Home | Current Version | Previous Version | Text Only | Print | Product List | Glossary On
Versions: 1 2 3 4 5 6 7 8 9 10 11 12 13 14 15 16 17 18 19 20
000
FTUS41 KILN 190500
TAFILN
TAF
KILN 190535Z 1906/2006 07010KT P6SM SCT100 OVC200
     FM191000 09012KT P6SM FEW050 OVC100
     FM191300 10012G20KT P6SM -SHRA OVC040
     FM191600 12016G26KT 5SM -SHRA OVC028
     FM192100 17016G26KT 4SM -SHRA OVC025
     FM200100 20014G22KT P6SM VCSH OVC020=

USA.gov is the U.S. government's official web portal to all federal, state and local government web resources and services.